Time;durP1;ratioP1;P1;durP2;ratioP2;P2;SDS_P1;SDS_P2;PMS_P1;PMS_P2;Temp;Humidity;BMP_temperature;BMP_pressure;BME280_temperature;BME280_humidity;BME280_pressure;Samples;Min_cycle;Max_cycle;Signal;HPM_P1;HPM_P2
2023/09/16 00:00:53;;;;;;;;;;;;;;;12.61;54.97;101541.28;108973;1267;68285;-88
2023/09/16 00:04:19;;;;;;;;;;;;;;;12.58;55.03;101540.63;109230;1264;72497;-88
2023/09/16 00:07:46;;;;;;;;;;;;;;;12.56;55.01;101543.23;109202;1264;58944;-88
2023/09/16 00:11:12;;;;;;;;;;;;;;;12.55;55.17;101540.64;109183;1264;60245;-88
2023/09/16 00:14:18;;;;;;;;;;;;;;;12.55;55.16;101536.33;109172;1264;73229;-88
2023/09/16 00:17:44;;;;;;;;;;;;;;;12.56;55.21;101537.88;109175;1264;68680;-88
2023/09/16 00:21:10;;;;;;;;;;;;;;;12.54;55.30;101537.20;109180;1264;72140;-87
2023/09/16 00:24:36;;;;;;;;;;;;;;;12.53;55.40;101538.77;109213;1263;58915;-88
2023/09/16 00:28:01;;;;;;;;;;;;;;;12.53;55.44;101538.59;109188;1264;59794;-88
2023/09/16 00:31:27;;;;;;;;;;;;;;;12.54;55.45;101541.00;109187;1264;74562;-88
2023/09/16 00:34:17;;;;;;;;;;;;;;;12.54;55.50;101539.97;109233;1264;67402;-88
2023/09/16 00:37:43;;;;;;;;;;;;;;;12.52;55.56;101541.20;109179;1264;71422;-88
2023/09/16 00:41:09;;;;;;;;;;;;;;;12.51;55.60;101535.15;109171;1264;58898;-88
2023/09/16 00:44:35;;;;;;;;;;;;;;;12.50;55.66;101532.91;108912;1265;218125;-88
2023/09/16 00:48:01;;;;;;;;;;;;;;;12.50;55.67;101528.42;109288;1263;73353;-88
2023/09/16 00:51:27;;;;;;;;;;;;;;;12.49;55.80;101526.70;108987;1265;67464;-89
2023/09/16 00:54:54;;;;;;;;;;;;;;;12.46;55.81;101526.41;108993;1265;71217;-88
2023/09/16 00:58:11;;;;;;;;;;;;;;;12.45;55.89;101529.71;109001;1265;59011;-89
2023/09/16 01:01:37;;;;;;;;;;;;;;;12.43;55.88;101534.91;109001;1265;58834;-88
2023/09/16 01:05:04;;;;;;;;;;;;;;;12.43;56.07;101539.41;108994;1265;73119;-88
2023/09/16 01:11:05;;;;;;;;;;;;;;;12.41;56.09;101543.05;109251;1264;72648;-88
2023/09/16 01:14:30;;;;;;;;;;;;;;;12.41;56.22;101541.15;109248;1264;58895;-88
2023/09/16 01:17:56;;;;;;;;;;;;;;;12.41;56.28;101546.34;109207;1264;59236;-88
2023/09/16 01:21:22;;;;;;;;;;;;;;;12.39;56.24;101545.33;109235;1263;73302;-88
2023/09/16 01:24:49;;;;;;;;;;;;;;;12.31;56.11;101547.29;109264;1263;67377;-88
2023/09/16 01:27:56;;;;;;;;;;;;;;;12.23;56.15;101552.19;109247;1263;70980;-87
2023/09/16 01:31:21;;;;;;;;;;;;;;;12.17;56.23;101550.33;109201;1264;58921;-88
2023/09/16 01:34:30;;;;;;;;;;;;;;;12.12;56.35;101547.27;109229;1263;58875;-87
2023/09/16 01:37:35;;;;;;;;;;;;;;;12.11;56.42;101541.56;109225;1263;73324;-87
2023/09/16 01:40:43;;;;;;;;;;;;;;;12.07;56.49;101539.52;109268;1263;67116;-88
2023/09/16 01:44:09;;;;;;;;;;;;;;;12.04;56.46;101540.06;108885;1268;71001;-88
2023/09/16 01:47:15;;;;;;;;;;;;;;;12.01;56.67;101539.57;108883;1267;58983;-88
2023/09/16 01:50:41;;;;;;;;;;;;;;;11.97;56.67;101539.59;108912;1267;60484;-88
2023/09/16 01:54:07;;;;;;;;;;;;;;;11.98;56.77;101542.69;108913;1267;74420;-88
2023/09/16 01:57:13;;;;;;;;;;;;;;;11.97;56.75;101540.79;108901;1268;68546;-87
2023/09/16 02:00:05;;;;;;;;;;;;;;;11.98;56.81;101538.71;108833;1268;71395;-88
2023/09/16 02:03:11;;;;;;;;;;;;;;;11.96;56.86;101539.25;108682;1270;59321;-88
2023/09/16 02:06:26;;;;;;;;;;;;;;;11.92;56.88;101539.83;101221;1271;10002576;-88
2023/09/16 02:09:34;;;;;;;;;;;;;;;11.92;57.05;101541.20;108745;1270;67280;-87
2023/09/16 02:12:21;;;;;;;;;;;;;;;11.91;57.00;101541.55;108744;1270;72319;-88
2023/09/16 02:15:47;;;;;;;;;;;;;;;11.90;57.07;101538.63;108865;1267;59357;-88
2023/09/16 02:18:54;;;;;;;;;;;;;;;11.89;57.12;101539.85;108924;1267;58784;-89
2023/09/16 02:22:20;;;;;;;;;;;;;;;11.89;57.13;101540.20;108935;1267;73216;-88
2023/09/16 02:25:45;;;;;;;;;;;;;;;11.88;57.20;101545.38;108966;1268;66421;-89
2023/09/16 02:29:12;;;;;;;;;;;;;;;11.86;57.30;101543.84;108905;1267;70023;-88
2023/09/16 02:32:38;;;;;;;;;;;;;;;11.85;57.39;101541.59;108906;1267;59240;-88
2023/09/16 02:35:44;;;;;;;;;;;;;;;11.84;57.43;101539.88;109154;1264;59917;-87
2023/09/16 02:38:52;;;;;;;;;;;;;;;11.86;57.48;101535.20;109033;1264;73108;-87
2023/09/16 02:42:02;;;;;;;;;;;;;;;11.85;57.45;101532.10;109150;1264;68389;-88
2023/09/16 02:45:10;;;;;;;;;;;;;;;11.84;57.54;101526.23;109169;1264;70635;-88
2023/09/16 02:48:36;;;;;;;;;;;;;;;11.80;57.50;101519.86;109163;1264;58955;-88
2023/09/16 02:52:02;;;;;;;;;;;;;;;11.78;57.61;101518.50;109195;1264;58919;-88
2023/09/16 02:55:08;;;;;;;;;;;;;;;11.77;57.67;101517.29;109149;1264;74239;-88
2023/09/16 02:58:15;;;;;;;;;;;;;;;11.76;57.68;101513.83;108922;1268;68252;-88
2023/09/16 03:01:21;;;;;;;;;;;;;;;11.74;57.70;101517.11;108911;1268;72378;-88
2023/09/16 03:04:27;;;;;;;;;;;;;;;11.73;57.71;101519.88;108873;1268;59139;-88
2023/09/16 03:07:33;;;;;;;;;;;;;;;11.72;57.80;101524.02;108938;1268;59358;-88
2023/09/16 03:10:37;;;;;;;;;;;;;;;11.69;57.87;101525.08;108877;1268;74194;-87
2023/09/16 03:13:42;;;;;;;;;;;;;;;11.67;57.99;101523.20;108895;1268;68855;-87
2023/09/16 03:17:08;;;;;;;;;;;;;;;11.68;58.03;101525.43;108868;1268;70098;-88
2023/09/16 03:20:34;;;;;;;;;;;;;;;11.66;58.14;101523.37;108887;1268;59213;-88
2023/09/16 03:23:44;;;;;;;;;;;;;;;11.61;58.17;101525.12;108934;1268;59831;-88
2023/09/16 03:26:48;;;;;;;;;;;;;;;11.63;58.36;101526.66;108896;1268;73329;-88
2023/09/16 03:30:17;;;;;;;;;;;;;;;11.62;58.30;101522.36;108866;1268;67384;-88
2023/09/16 03:33:39;;;;;;;;;;;;;;;11.61;58.36;101512.86;108920;1268;71159;-88
2023/09/16 03:37:04;;;;;;;;;;;;;;;11.62;58.40;101505.43;109161;1264;59310;-88
2023/09/16 03:40:19;;;;;;;;;;;;;;;11.64;58.46;101502.65;109210;1264;58854;-88
2023/09/16 03:43:45;;;;;;;;;;;;;;;11.64;58.44;101497.81;109189;1264;73848;-88
2023/09/16 03:47:00;;;;;;;;;;;;;;;11.60;58.47;101503.37;109181;1264;68450;-89
2023/09/16 03:55:43;;;;;;;;;;;;;;;11.56;58.48;101495.63;109278;1263;58871;-88
2023/09/16 03:59:09;;;;;;;;;;;;;;;11.55;58.55;101496.84;109310;1263;75052;-88
2023/09/16 04:02:36;;;;;;;;;;;;;;;11.52;58.59;101501.17;109319;1264;67772;-89
2023/09/16 04:06:03;;;;;;;;;;;;;;;11.48;58.51;101497.91;109265;1264;71386;-88
2023/09/16 04:09:27;;;;;;;;;;;;;;;11.46;58.71;101500.69;109281;1263;59176;-88
2023/09/16 04:12:51;;;;;;;;;;;;;;;11.44;58.64;101497.26;109297;1263;58966;-88
2023/09/16 04:16:16;;;;;;;;;;;;;;;11.40;58.68;101500.06;109256;1264;74455;-88
2023/09/16 04:19:24;;;;;;;;;;;;;;;11.38;58.73;101493.17;109292;1263;67070;-88
2023/09/16 04:22:39;;;;;;;;;;;;;;;11.33;58.73;101493.54;109274;1262;71034;-88
2023/09/16 04:28:46;;;;;;;;;;;;;;;11.23;58.85;101484.27;109227;1264;59898;-88
2023/09/16 04:32:16;;;;;;;;;;;;;;;11.18;58.89;101487.39;109218;1267;74416;-88
2023/09/16 04:35:42;;;;;;;;;;;;;;;11.17;58.96;101485.33;109228;1264;68960;-88
2023/09/16 04:39:10;;;;;;;;;;;;;;;11.14;59.04;101483.27;109213;1263;70901;-88
2023/09/16 04:45:15;;;;;;;;;;;;;;;11.12;59.12;101488.63;104845;1263;5798023;-88
2023/09/16 04:48:39;;;;;;;;;;;;;;;11.13;59.15;101486.37;109246;1264;67281;-89
2023/09/16 04:52:05;;;;;;;;;;;;;;;11.13;59.17;101484.99;109209;1263;72035;-89
2023/09/16 04:55:24;;;;;;;;;;;;;;;11.11;59.19;101485.70;109191;1263;59963;-89
2023/09/16 04:58:50;;;;;;;;;;;;;;;11.09;59.24;101488.98;109282;1266;58937;-90
2023/09/16 05:02:21;;;;;;;;;;;;;;;11.08;59.32;101496.23;109244;1263;74684;-90
2023/09/16 05:08:23;;;;;;;;;;;;;;;11.11;59.35;101500.88;109246;1263;72098;-90
2023/09/16 05:11:17;;;;;;;;;;;;;;;11.11;59.42;101503.64;109221;1264;59213;-89
2023/09/16 05:14:45;;;;;;;;;;;;;;;11.13;59.52;101508.11;109266;1263;58825;-89
2023/09/16 05:18:09;;;;;;;;;;;;;;;11.17;59.56;101501.02;109286;1263;73233;-89
2023/09/16 05:21:36;;;;;;;;;;;;;;;11.21;59.61;101492.72;109261;1263;67022;-89
2023/09/16 05:25:02;;;;;;;;;;;;;;;11.24;59.76;101494.09;109231;1264;71234;-89
2023/09/16 05:28:29;;;;;;;;;;;;;;;11.26;59.89;101495.80;109259;1264;58960;-89
2023/09/16 05:31:55;;;;;;;;;;;;;;;11.28;60.00;101497.88;109264;1264;58966;-89
2023/09/16 05:35:23;;;;;;;;;;;;;;;11.33;60.06;101491.11;109252;1264;72054;-90
2023/09/16 05:38:49;;;;;;;;;;;;;;;11.41;60.18;101492.79;109262;1264;69226;-89
2023/09/16 05:44:51;;;;;;;;;;;;;;;11.67;60.27;101494.87;109217;1263;59441;-89
2023/09/16 05:50:26;;;;;;;;;;;;;;;11.79;60.38;101494.30;109228;1264;74347;-89
2023/09/16 05:53:25;;;;;;;;;;;;;;;11.85;60.45;101488.21;109283;1263;67472;-90
2023/09/16 05:56:27;;;;;;;;;;;;;;;11.92;60.64;101489.71;109143;1264;85801;-94
2023/09/16 07:09:40;;;;;;;;;;;;;;;29.47;55.45;101471.98;109189;1264;80200;-90
2023/09/16 07:12:39;;;;;;;;;;;;;;;30.16;55.28;101473.46;109249;1263;67202;-90
2023/09/16 07:16:05;;;;;;;;;;;;;;;30.57;55.13;101471.07;109268;1263;71095;-90
2023/09/16 07:19:33;;;;;;;;;;;;;;;31.18;55.38;101469.00;109252;1263;59330;-90
2023/09/16 07:23:02;;;;;;;;;;;;;;;31.85;54.75;101462.52;109248;1264;58971;-91
2023/09/16 07:26:28;;;;;;;;;;;;;;;32.44;54.08;101462.15;109247;1264;74433;-91
2023/09/16 07:40:38;;;;;;;;;;;;;;;30.53;52.51;101453.77;109294;1264;74484;-90
2023/09/16 07:57:41;;;;;;;;;;;;;;;33.93;48.53;101470.19;109354;1263;65671;-90
2023/09/16 08:11:18;;;;;;;;;;;;;;;37.48;46.77;101459.53;109200;1263;68131;-88
2023/09/16 08:14:44;;;;;;;;;;;;;;;38.20;45.94;101461.13;109168;1264;73361;-89
2023/09/16 08:18:10;;;;;;;;;;;;;;;38.33;45.91;101462.33;109179;1264;59310;-88
2023/09/16 08:21:36;;;;;;;;;;;;;;;38.40;45.52;101461.11;109177;1264;58884;-89
2023/09/16 08:25:02;;;;;;;;;;;;;;;37.80;44.31;101456.09;109148;1264;74850;-88
2023/09/16 08:28:30;;;;;;;;;;;;;;;35.41;44.99;101455.73;109262;1262;68700;-88
2023/09/16 08:31:54;;;;;;;;;;;;;;;33.06;45.08;101457.88;109243;1262;70955;-88
2023/09/16 08:35:24;;;;;;;;;;;;;;;31.13;44.67;101452.17;109269;1262;58961;-88
2023/09/16 08:38:47;;;;;;;;;;;;;;;29.56;44.21;101445.29;109286;1262;58772;-88
2023/09/16 08:42:16;;;;;;;;;;;;;;;28.16;43.59;101435.04;109327;1262;73034;-87
2023/09/16 08:45:42;;;;;;;;;;;;;;;26.64;43.34;101431.42;109283;1262;67336;-89
2023/09/16 08:49:09;;;;;;;;;;;;;;;25.74;43.18;101432.15;109318;1262;71579;-89
2023/09/16 08:52:35;;;;;;;;;;;;;;;24.82;42.62;101434.00;109288;1262;59248;-89
2023/09/16 08:56:02;;;;;;;;;;;;;;;23.97;42.84;101425.65;109251;1262;58841;-89
2023/09/16 08:59:29;;;;;;;;;;;;;;;23.41;42.47;101431.73;109280;1262;74455;-89
2023/09/16 09:02:55;;;;;;;;;;;;;;;22.76;42.58;101426.90;109278;1262;67057;-89
2023/09/16 09:06:21;;;;;;;;;;;;;;;22.47;42.71;101422.45;109291;1261;71844;-89
2023/09/16 09:09:47;;;;;;;;;;;;;;;22.25;42.61;101413.64;109332;1262;58956;-89
2023/09/16 09:13:14;;;;;;;;;;;;;;;22.01;42.59;101402.02;109353;1262;58922;-89
2023/09/16 09:16:40;;;;;;;;;;;;;;;21.85;42.63;101397.79;109332;1262;73308;-88
2023/09/16 09:20:06;;;;;;;;;;;;;;;21.69;42.89;101395.23;109320;1262;68425;-89
2023/09/16 09:23:32;;;;;;;;;;;;;;;21.58;42.85;101397.89;109317;1261;71255;-89
2023/09/16 09:26:49;;;;;;;;;;;;;;;21.33;42.98;101393.18;109299;1262;58919;-88
2023/09/16 09:30:15;;;;;;;;;;;;;;;21.14;42.82;101389.67;109333;1263;58903;-88
2023/09/16 09:33:41;;;;;;;;;;;;;;;20.99;42.95;101391.77;109320;1262;72041;-88
2023/09/16 09:37:08;;;;;;;;;;;;;;;20.88;43.05;101379.51;109327;1262;68330;-88
2023/09/16 09:40:34;;;;;;;;;;;;;;;20.85;43.35;101376.52;109300;1261;71109;-88
2023/09/16 09:44:00;;;;;;;;;;;;;;;20.79;43.49;101367.85;109291;1263;58866;-89
2023/09/16 09:47:26;;;;;;;;;;;;;;;20.74;43.56;101360.06;109346;1262;59772;-89
2023/09/16 09:50:52;;;;;;;;;;;;;;;20.74;43.77;101361.60;109327;1262;73253;-89
2023/09/16 09:54:18;;;;;;;;;;;;;;;20.75;43.82;101359.64;109337;1262;67025;-89
2023/09/16 09:57:45;;;;;;;;;;;;;;;20.79;43.93;101363.64;109318;1261;71428;-89
2023/09/16 10:01:11;;;;;;;;;;;;;;;20.86;44.09;101354.56;109313;1261;59215;-90
2023/09/16 10:04:37;;;;;;;;;;;;;;;20.94;44.29;101353.48;109212;1262;59835;-90
2023/09/16 10:08:02;;;;;;;;;;;;;;;20.99;44.21;101353.38;109263;1263;72863;-90
2023/09/16 10:11:26;;;;;;;;;;;;;;;21.04;44.15;101356.16;109234;1262;68107;-89
2023/09/16 10:14:53;;;;;;;;;;;;;;;21.08;44.26;101352.61;109274;1262;71838;-91
2023/09/16 10:18:18;;;;;;;;;;;;;;;21.12;44.25;101346.30;109258;1261;59006;-91
2023/09/16 10:21:42;;;;;;;;;;;;;;;21.12;44.30;101339.96;109220;1262;58843;-91
2023/09/16 10:38:12;;;;;;;;;;;;;;;21.38;44.72;101324.52;109200;1262;74458;-91
2023/09/16 10:41:36;;;;;;;;;;;;;;;21.42;44.82;101320.59;109224;1262;68384;-91
2023/09/16 10:44:34;;;;;;;;;;;;;;;21.47;44.99;101321.76;109268;1263;72529;-91
2023/09/16 10:50:07;;;;;;;;;;;;;;;21.55;44.79;101319.27;109193;1262;59233;-88
2023/09/16 11:14:34;;;;;;;;;;;;;;;21.61;45.03;101291.79;109233;1262;59017;-91
2023/09/16 11:23:05;;;;;;;;;;;;;;;21.69;45.09;101285.20;109290;1262;66920;-91
2023/09/16 11:33:55;;;;;;;;;;;;;;;21.84;45.01;101279.89;109217;1262;80897;-90
2023/09/16 11:37:19;;;;;;;;;;;;;;;21.83;45.33;101276.23;109276;1262;67450;-91
2023/09/16 11:40:46;;;;;;;;;;;;;;;21.89;45.12;101287.05;109214;1262;71894;-91
2023/09/16 11:44:12;;;;;;;;;;;;;;;21.90;45.13;101283.91;109309;1263;59261;-91
2023/09/16 11:47:36;;;;;;;;;;;;;;;21.89;45.14;101280.11;109295;1262;59224;-91
2023/09/16 11:51:03;;;;;;;;;;;;;;;21.90;45.24;101275.83;109229;1262;74391;-92
2023/09/16 11:54:29;;;;;;;;;;;;;;;21.95;45.30;101275.42;109264;1262;59790;-91
2023/09/16 11:57:56;;;;;;;;;;;;;;;22.00;45.30;101271.83;109146;1264;72830;-91
2023/09/16 12:01:22;;;;;;;;;;;;;;;22.01;45.29;101277.90;109127;1264;59172;-91
2023/09/16 12:04:48;;;;;;;;;;;;;;;22.02;45.32;101274.01;109120;1264;59924;-91
2023/09/16 12:08:15;;;;;;;;;;;;;;;22.06;45.39;101268.15;109150;1265;73159;-91
2023/09/16 12:11:41;;;;;;;;;;;;;;;22.13;45.39;101267.94;109158;1265;67056;-91
2023/09/16 12:15:07;;;;;;;;;;;;;;;22.18;45.32;101269.10;109143;1264;71056;-92
2023/09/16 12:18:33;;;;;;;;;;;;;;;22.25;45.38;101265.38;109147;1263;58848;-91
2023/09/16 12:21:59;;;;;;;;;;;;;;;22.24;45.30;101252.95;109199;1264;59628;-92
2023/09/16 12:25:26;;;;;;;;;;;;;;;22.26;45.38;101256.37;109196;1264;73145;-91
2023/09/16 12:28:52;;;;;;;;;;;;;;;22.29;45.24;101255.17;109181;1263;67721;-92
2023/09/16 12:32:31;;;;;;;;;;;;;;;22.33;45.25;101247.91;109166;1263;71002;-91
2023/09/16 12:35:57;;;;;;;;;;;;;;;22.35;45.20;101243.73;109178;1265;58950;-92
2023/09/16 12:39:33;;;;;;;;;;;;;;;;;;;;;
2023/09/16 12:42:49;;;;;;;;;;;;;;;22.35;45.37;101234.26;109236;1263;73013;-92
2023/09/16 12:46:33;;;;;;;;;;;;;;;;;;;;;
2023/09/16 12:49:52;;;;;;;;;;;;;;;22.39;45.31;101223.48;109168;1264;71205;-92
2023/09/16 12:53:18;;;;;;;;;;;;;;;22.42;45.35;101214.50;109181;1264;59226;-92
2023/09/16 12:56:44;;;;;;;;;;;;;;;22.45;45.33;101214.52;109202;1265;59144;-92
2023/09/16 13:00:17;;;;;;;;;;;;;;;22.51;45.41;101210.19;109095;1265;73114;-92
2023/09/16 13:03:42;;;;;;;;;;;;;;;22.52;45.21;101212.60;109086;1266;68381;-92
2023/09/16 13:07:10;;;;;;;;;;;;;;;22.48;45.16;101212.63;109100;1265;71031;-92
2023/09/16 13:10:34;;;;;;;;;;;;;;;22.49;45.34;101208.51;109103;1264;58886;-92
2023/09/16 13:13:59;;;;;;;;;;;;;;;22.58;45.33;101206.23;109092;1264;59049;-92
2023/09/16 13:17:25;;;;;;;;;;;;;;;22.60;45.14;101201.58;109109;1265;73218;-91
2023/09/16 13:20:49;;;;;;;;;;;;;;;22.61;45.10;101207.34;109152;1264;66620;-92
2023/09/16 13:24:14;;;;;;;;;;;;;;;22.62;45.21;101202.51;109154;1264;71058;-91
2023/09/16 13:27:38;;;;;;;;;;;;;;;22.63;45.14;101203.70;109142;1264;58968;-91
2023/09/16 13:31:03;;;;;;;;;;;;;;;22.63;45.19;101199.31;109129;1265;58682;-92
2023/09/16 13:34:27;;;;;;;;;;;;;;;22.68;45.30;101189.17;109140;1264;74136;-92
2023/09/16 13:37:51;;;;;;;;;;;;;;;22.69;44.93;101188.23;109127;1266;68354;-91
2023/09/16 13:41:16;;;;;;;;;;;;;;;22.69;45.00;101188.92;109153;1265;70199;-91
2023/09/16 13:44:40;;;;;;;;;;;;;;;22.70;44.99;101186.22;109150;1264;58835;-91
2023/09/16 13:48:04;;;;;;;;;;;;;;;22.72;45.17;101181.37;109154;1264;60470;-91
2023/09/16 13:51:29;;;;;;;;;;;;;;;22.72;45.05;101177.84;109126;1265;72920;-92
2023/09/16 13:54:53;;;;;;;;;;;;;;;22.73;45.29;101176.89;109128;1265;68365;-91
2023/09/16 13:58:17;;;;;;;;;;;;;;;22.77;45.11;101174.05;109144;1264;71996;-91
2023/09/16 14:01:41;;;;;;;;;;;;;;;22.82;44.88;101170.14;109111;1264;58626;-91
2023/09/16 14:05:06;;;;;;;;;;;;;;;22.88;45.10;101162.72;109127;1267;58879;-91
2023/09/16 14:08:30;;;;;;;;;;;;;;;22.89;44.97;101158.09;109073;1264;74358;-91
2023/09/16 14:11:55;;;;;;;;;;;;;;;22.87;45.08;101153.07;109108;1265;68415;-91
2023/09/16 14:15:19;;;;;;;;;;;;;;;22.91;44.99;101149.33;109157;1265;72393;-91
2023/09/16 14:18:43;;;;;;;;;;;;;;;22.89;44.92;101150.84;109134;1264;58839;-91
2023/09/16 14:22:10;;;;;;;;;;;;;;;22.90;44.93;101143.21;107691;1265;1927270;-92
2023/09/16 14:25:36;;;;;;;;;;;;;;;22.95;44.94;101139.80;109194;1263;74098;-92
2023/09/16 14:29:02;;;;;;;;;;;;;;;22.93;44.89;101137.81;109242;1262;68428;-91
2023/09/16 14:32:28;;;;;;;;;;;;;;;22.92;44.91;101133.25;109196;1263;72393;-91
2023/09/16 14:35:55;;;;;;;;;;;;;;;22.90;44.95;101134.98;109207;1263;58947;-91
2023/09/16 14:39:21;;;;;;;;;;;;;;;22.86;44.89;101125.56;109226;1263;58832;-91
2023/09/16 14:42:47;;;;;;;;;;;;;;;22.84;44.89;101118.14;109239;1263;74205;-92
2023/09/16 14:46:16;;;;;;;;;;;;;;;22.82;44.85;101115.45;109240;1266;68460;-91
2023/09/16 14:49:42;;;;;;;;;;;;;;;22.82;44.97;101109.11;109230;1263;72465;-92
2023/09/16 14:52:44;;;;;;;;;;;;;;;22.83;45.01;101106.41;109428;1261;59090;-90
2023/09/16 14:56:09;;;;;;;;;;;;;;;22.82;45.08;101101.75;109426;1260;58950;-90
2023/09/16 14:59:35;;;;;;;;;;;;;;;22.79;44.84;101101.17;109426;1260;75160;-90
2023/09/16 15:03:02;;;;;;;;;;;;;;;22.79;44.84;101102.23;109441;1260;66102;-90
2023/09/16 15:06:28;;;;;;;;;;;;;;;22.79;44.86;101095.36;109374;1261;72198;-90
2023/09/16 15:09:54;;;;;;;;;;;;;;;22.76;44.98;101093.60;109401;1262;59131;-90
2023/09/16 15:13:20;;;;;;;;;;;;;;;22.75;44.87;101092.27;109407;1262;60081;-90
2023/09/16 15:16:46;;;;;;;;;;;;;;;22.74;44.92;101093.52;109404;1261;73211;-90
2023/09/16 15:20:13;;;;;;;;;;;;;;;22.73;44.94;101092.35;109403;1262;66358;-90
2023/09/16 15:23:39;;;;;;;;;;;;;;;22.70;44.81;101090.26;109346;1262;72508;-90
2023/09/16 15:27:05;;;;;;;;;;;;;;;22.69;44.82;101083.83;109344;1262;58821;-90
2023/09/16 15:30:31;;;;;;;;;;;;;;;22.66;44.80;101082.75;109385;1262;59633;-90
2023/09/16 15:33:58;;;;;;;;;;;;;;;22.64;44.80;101083.25;109370;1263;74293;-90
2023/09/16 15:37:24;;;;;;;;;;;;;;;22.60;44.92;101080.13;109385;1262;67877;-90
2023/09/16 15:40:50;;;;;;;;;;;;;;;22.57;44.92;101083.48;109390;1263;71181;-90
2023/09/16 15:44:17;;;;;;;;;;;;;;;22.58;44.80;101076.95;109356;1262;58902;-90
2023/09/16 15:47:44;;;;;;;;;;;;;;;22.52;44.85;101073.42;109419;1261;58905;-90
2023/09/16 15:51:10;;;;;;;;;;;;;;;22.45;44.90;101071.48;109408;1262;73021;-90
2023/09/16 15:54:36;;;;;;;;;;;;;;;22.40;44.89;101070.91;109409;1262;67548;-90
2023/09/16 15:58:02;;;;;;;;;;;;;;;22.35;45.05;101068.07;109359;1262;71236;-89
2023/09/16 16:01:28;;;;;;;;;;;;;;;22.28;44.98;101061.27;109378;1262;59223;-89
2023/09/16 16:04:54;;;;;;;;;;;;;;;22.23;45.09;101058.81;109374;1262;58926;-89
2023/09/16 16:08:20;;;;;;;;;;;;;;;22.15;45.19;101058.90;109399;1262;74226;-90
2023/09/16 16:11:46;;;;;;;;;;;;;;;22.07;45.23;101055.30;109418;1262;68877;-90
2023/09/16 16:15:12;;;;;;;;;;;;;;;22.01;45.29;101053.52;109358;1262;73767;-90
2023/09/16 16:18:38;;;;;;;;;;;;;;;21.94;45.34;101053.39;109377;1263;58999;-90
2023/09/16 16:22:08;;;;;;;;;;;;;;;21.85;45.48;101046.33;109391;1262;58870;-90
2023/09/16 16:25:35;;;;;;;;;;;;;;;21.77;45.52;101048.57;109418;1261;73152;-90
2023/09/16 16:29:02;;;;;;;;;;;;;;;21.68;45.57;101046.97;109447;1263;67135;-90
2023/09/16 16:32:27;;;;;;;;;;;;;;;21.58;45.61;101043.81;109337;1262;72348;-92
2023/09/16 16:35:53;;;;;;;;;;;;;;;21.47;45.67;101037.73;109396;1262;58229;-91
2023/09/16 16:39:28;;;;;;;;;;;;;;;21.38;45.78;101038.61;109400;1262;58982;-90
2023/09/16 16:42:45;;;;;;;;;;;;;;;21.29;45.87;101036.52;109381;1264;74987;-92
2023/09/16 16:46:11;;;;;;;;;;;;;;;21.20;46.05;101032.58;105245;1262;68065;-91
2023/09/16 16:49:37;;;;;;;;;;;;;;;21.11;46.06;101033.36;109367;1262;58823;-91
2023/09/16 16:53:03;;;;;;;;;;;;;;;21.02;46.12;101034.58;109400;1262;58814;-92
2023/09/16 16:56:30;;;;;;;;;;;;;;;20.92;46.24;101038.41;109384;1262;73323;-92
2023/09/16 16:59:56;;;;;;;;;;;;;;;20.82;46.42;101041.55;109412;1263;68272;-91
2023/09/16 17:03:30;;;;;;;;;;;;;;;20.72;46.56;101043.49;109387;1261;70881;-89
2023/09/16 17:06:56;;;;;;;;;;;;;;;20.62;46.59;101044.72;109315;1261;58887;-89
2023/09/16 17:10:22;;;;;;;;;;;;;;;20.51;46.67;101037.42;109421;1262;58783;-89
2023/09/16 17:13:30;;;;;;;;;;;;;;;20.41;46.81;101034.73;109368;1262;73041;-89
2023/09/16 17:16:28;;;;;;;;;;;;;;;20.32;46.85;101034.86;109344;1263;67263;-89
2023/09/16 17:19:35;;;;;;;;;;;;;;;20.24;47.04;101034.59;109376;1262;71128;-90
2023/09/16 17:22:50;;;;;;;;;;;;;;;20.15;47.03;101032.71;109378;1262;58905;-89
2023/09/16 17:26:16;;;;;;;;;;;;;;;20.06;47.19;101034.58;109379;1263;58861;-89
2023/09/16 17:29:42;;;;;;;;;;;;;;;19.96;47.30;101034.02;109442;1263;74398;-90
2023/09/16 17:45:39;;;;;;;;;;;;;;;19.59;47.74;101038.09;109366;1265;67882;-89
2023/09/16 17:56:18;;;;;;;;;;;;;;;19.43;48.15;101045.91;109437;1262;74548;-90
2023/09/16 18:01:47;;;;;;;;;;;;;;;19.34;48.36;101056.49;109436;1262;72433;-90
2023/09/16 18:04:23;;;;;;;;;;;;;;;19.27;48.46;101060.85;109395;1265;58806;-89
2023/09/16 18:25:10;;;;;;;;;;;;;;;18.80;49.21;101070.61;109378;1262;79647;-88
2023/09/16 18:27:59;;;;;;;;;;;;;;;18.75;49.37;101073.08;109342;1262;73155;-89
2023/09/16 18:36:00;;;;;;;;;;;;;;;18.64;49.55;101072.89;109492;1263;73101;-88
2023/09/16 18:44:04;;;;;;;;;;;;;;;18.49;49.79;101072.96;109461;1262;88028;-93
2023/09/16 18:46:55;;;;;;;;;;;;;;;18.44;49.86;101075.41;109389;1262;60746;-89
2023/09/16 19:02:40;;;;;;;;;;;;;;;18.17;50.39;101064.17;109441;1261;74406;-89
2023/09/16 19:05:22;;;;;;;;;;;;;;;18.13;50.43;101065.92;109477;1262;83841;-93
2023/09/16 19:36:37;;;;;;;;;;;;;;;17.64;51.40;101060.15;109427;1262;58892;-89
2023/09/16 20:20:37;;;;;;;;;;;;;;;16.54;52.92;101056.44;109240;1264;58934;-89
2023/09/16 20:28:28;;;;;;;;;;;;;;;16.39;53.23;101058.00;109416;1262;72256;-88
2023/09/16 20:36:33;;;;;;;;;;;;;;;16.31;53.31;101050.08;109424;1262;74591;-89
2023/09/16 20:39:20;;;;;;;;;;;;;;;16.30;53.52;101054.48;109444;1262;67299;-88
2023/09/16 20:42:12;;;;;;;;;;;;;;;16.29;53.47;101048.39;109275;1261;71104;-89
2023/09/16 20:45:38;;;;;;;;;;;;;;;16.26;53.65;101044.15;109450;1262;59034;-90
2023/09/16 20:51:40;;;;;;;;;;;;;;;16.12;53.79;101043.23;109474;1261;74362;-90
